createdAt,value
2022-08-17T00:00:34.286Z,58.39
2022-08-17T00:03:13.620Z,59.09
2022-08-17T00:06:08.397Z,53.66
2022-08-17T00:08:49.230Z,56.22
2022-08-17T00:12:43.585Z,58.98
2022-08-17T00:15:59.677Z,57.84
2022-08-17T00:19:06.015Z,52.23
2022-08-17T00:22:33.616Z,59.79
2022-08-17T00:25:00.668Z,57.18
2022-08-17T00:27:28.637Z,57.55
2022-08-17T00:29:55.966Z,54.51
2022-08-17T00:33:12.645Z,56.61
2022-08-17T00:36:07.595Z,59.89
2022-08-17T00:38:36.045Z,59.58
2022-08-17T00:41:59.773Z,54.75
2022-08-17T00:44:31.314Z,60.60
2022-08-17T00:46:58.405Z,56.18
2022-08-17T00:49:26.192Z,60.30
2022-08-17T00:52:11.632Z,59.67
2022-08-17T00:55:35.626Z,58.97
2022-08-17T00:58:05.961Z,59.16
2022-08-17T01:01:30.192Z,59.44
2022-08-17T01:04:00.047Z,60.64
2022-08-17T01:06:28.757Z,60.84
2022-08-17T01:09:00.040Z,61.14
2022-08-17T01:11:29.773Z,55.22
2022-08-17T01:13:56.843Z,60.99
2022-08-17T01:16:30.890Z,61.11
2022-08-17T01:19:06.888Z,59.14
2022-08-17T01:21:48.937Z,58.71
2022-08-17T01:24:17.245Z,56.64
2022-08-17T01:26:46.077Z,60.83
2022-08-17T01:29:14.467Z,60.53
2022-08-17T01:31:51.178Z,62.31
2022-08-17T01:34:19.640Z,65.12
2022-08-17T01:36:50.263Z,62.74
2022-08-17T01:39:56.783Z,60.14
2022-08-17T01:42:31.532Z,60.47
2022-08-17T01:45:07.918Z,60.94
2022-08-17T01:47:36.055Z,60.55
2022-08-17T01:50:15.875Z,62.64
2022-08-17T01:52:45.989Z,62.98
2022-08-17T01:55:16.798Z,62.41
2022-08-17T01:57:45.541Z,61.09
2022-08-17T02:00:13.647Z,62.21
2022-08-17T02:02:41.172Z,63.23
2022-08-17T02:05:09.020Z,63.50
2022-08-17T02:07:59.424Z,59.81
2022-08-17T02:10:23.850Z,58.46
2022-08-17T02:13:04.200Z,61.43
2022-08-17T02:15:33.416Z,54.09
2022-08-17T02:18:02.509Z,58.49
2022-08-17T02:20:42.413Z,59.58
2022-08-17T02:23:12.479Z,62.18
2022-08-17T02:25:45.684Z,63.85
2022-08-17T02:28:14.656Z,58.44
2022-08-17T02:30:59.829Z,56.09
2022-08-17T02:33:37.183Z,63.01
2022-08-17T02:36:12.839Z,58.07
2022-08-17T02:38:41.188Z,59.84
2022-08-17T02:41:09.158Z,59.74
2022-08-17T02:43:36.172Z,52.19
2022-08-17T02:46:03.179Z,61.99
2022-08-17T02:48:31.957Z,62.26
2022-08-17T02:51:02.313Z,63.64
2022-08-17T02:53:35.770Z,59.11
2022-08-17T02:56:04.271Z,63.87
2022-08-17T02:58:35.086Z,59.82
2022-08-17T03:01:09.348Z,63.80
2022-08-17T03:03:37.746Z,62.80
2022-08-17T03:06:07.456Z,62.84
2022-08-17T03:08:35.522Z,64.84
2022-08-17T03:11:02.512Z,64.96
2022-08-17T03:13:30.801Z,64.48
2022-08-17T03:15:58.052Z,53.84
2022-08-17T03:18:26.360Z,63.97
2022-08-17T03:20:57.498Z,66.13
2022-08-17T03:23:27.507Z,66.79
2022-08-17T03:25:58.043Z,67.02
2022-08-17T03:28:25.938Z,69.46
2022-08-17T03:30:53.340Z,69.62
2022-08-17T03:33:20.966Z,70.50
2022-08-17T03:35:48.283Z,69.99
2022-08-17T03:38:17.044Z,67.63
2022-08-17T03:40:57.442Z,71.47
2022-08-17T03:43:30.299Z,71.28
2022-08-17T03:46:29.040Z,70.30
2022-08-17T03:49:26.838Z,71.02
2022-08-17T03:52:13.895Z,69.91
2022-08-17T03:55:03.186Z,67.98
2022-08-17T03:57:32.380Z,69.03
2022-08-17T03:59:59.901Z,60.51
2022-08-17T04:02:34.106Z,68.86
2022-08-17T04:05:01.201Z,69.55
2022-08-17T04:07:30.802Z,70.02
2022-08-17T04:09:59.421Z,70.26
2022-08-17T04:12:31.535Z,71.59
2022-08-17T04:15:03.433Z,62.21
2022-08-17T04:17:30.512Z,67.47
2022-08-17T04:19:58.302Z,67.10
2022-08-17T04:22:33.155Z,68.08
2022-08-17T04:25:06.788Z,68.47
2022-08-17T04:27:33.976Z,66.48
2022-08-17T04:30:02.482Z,67.85
2022-08-17T04:33:03.665Z,63.04
2022-08-17T04:35:26.761Z,58.75
2022-08-17T04:37:54.478Z,67.27
2022-08-17T04:40:44.389Z,67.53
2022-08-17T04:43:21.164Z,72.00
2022-08-17T04:45:57.268Z,80.87
2022-08-17T04:48:35.980Z,76.69
2022-08-17T04:51:17.716Z,72.16
2022-08-17T04:53:54.240Z,72.93
2022-08-17T04:56:25.802Z,72.92
2022-08-17T04:58:57.920Z,75.47
2022-08-17T05:01:28.175Z,73.71
2022-08-17T05:03:59.482Z,69.41
2022-08-17T05:06:28.997Z,71.87
2022-08-17T05:08:58.095Z,70.54
2022-08-17T05:11:27.106Z,71.20
2022-08-17T05:13:56.179Z,71.56
2022-08-17T05:16:26.547Z,72.94
2022-08-17T05:18:53.866Z,71.75
2022-08-17T05:21:23.278Z,72.60
2022-08-17T05:23:56.327Z,71.56
2022-08-17T05:26:27.434Z,72.85
2022-08-17T05:29:00.481Z,71.92
2022-08-17T05:31:31.459Z,71.26
2022-08-17T05:33:59.193Z,61.89
2022-08-17T05:36:43.149Z,67.99
2022-08-17T05:39:16.385Z,68.57
2022-08-17T05:41:47.586Z,67.68
2022-08-17T05:44:16.238Z,67.48
2022-08-17T05:46:49.792Z,69.46
2022-08-17T05:49:25.350Z,69.80
2022-08-17T05:52:10.668Z,67.56
2022-08-17T05:55:10.853Z,65.08
2022-08-17T05:58:03.999Z,66.70
2022-08-17T06:00:50.774Z,66.59
2022-08-17T06:03:38.537Z,65.26
2022-08-17T06:06:41.227Z,66.66
2022-08-17T06:09:37.958Z,66.55
2022-08-17T06:12:08.140Z,65.31
2022-08-17T06:15:04.017Z,63.88
2022-08-17T06:17:31.521Z,63.11
2022-08-17T06:20:14.987Z,62.79
2022-08-17T06:22:49.298Z,61.62
2022-08-17T06:25:38.622Z,62.18
2022-08-17T06:28:13.746Z,63.50
2022-08-17T06:31:00.104Z,61.12
2022-08-17T06:33:36.821Z,60.00
2022-08-17T06:36:10.738Z,60.09
2022-08-17T06:39:21.193Z,59.08
2022-08-17T06:42:00.859Z,58.26
2022-08-17T06:44:51.099Z,54.66
2022-08-17T06:47:28.479Z,54.03
2022-08-17T06:50:08.768Z,55.08
2022-08-17T06:52:53.435Z,55.68
2022-08-17T06:55:37.930Z,54.34
2022-08-17T06:58:16.387Z,54.20
2022-08-17T07:00:48.288Z,54.28
2022-08-17T07:03:40.936Z,53.71
2022-08-17T07:06:24.880Z,52.97
2022-08-17T07:09:18.601Z,52.75
2022-08-17T07:12:04.290Z,51.41
2022-08-17T07:14:43.298Z,51.77
2022-08-17T07:17:18.325Z,51.37
2022-08-17T07:19:50.313Z,52.38
2022-08-17T07:22:55.313Z,51.00
2022-08-17T07:25:30.094Z,50.66
2022-08-17T07:28:02.470Z,50.97
2022-08-17T07:30:48.987Z,49.85
2022-08-17T07:33:23.399Z,50.05
2022-08-17T07:35:50.582Z,49.32
2022-08-17T07:38:33.810Z,49.41
2022-08-17T07:41:10.622Z,49.57
2022-08-17T07:43:40.926Z,48.79
2022-08-17T07:46:30.065Z,48.76
2022-08-17T07:49:37.826Z,47.36
2022-08-17T07:52:50.619Z,45.73
2022-08-17T07:55:29.762Z,48.40
2022-08-17T07:57:59.324Z,48.40
2022-08-17T08:00:31.994Z,48.74
2022-08-17T08:03:11.781Z,47.85
2022-08-17T08:05:55.457Z,48.79
2022-08-17T08:08:38.225Z,49.20
2022-08-17T08:11:15.479Z,47.38
2022-08-17T08:13:45.575Z,46.66
2022-08-17T08:16:26.980Z,45.26
2022-08-17T08:18:58.475Z,44.76
2022-08-17T08:21:33.753Z,44.26
2022-08-17T08:24:38.646Z,44.14
2022-08-17T08:27:35.576Z,43.15
2022-08-17T08:30:21.562Z,43.17
2022-08-17T08:33:20.605Z,41.66
2022-08-17T08:35:55.765Z,41.83
2022-08-17T08:38:57.004Z,42.27
2022-08-17T08:42:07.602Z,42.49
2022-08-17T08:45:00.663Z,42.35
2022-08-17T08:48:58.242Z,42.26
2022-08-17T08:51:52.101Z,43.22
2022-08-17T08:54:28.402Z,42.78
2022-08-17T08:57:24.172Z,43.57
2022-08-17T09:00:15.629Z,42.55
2022-08-17T09:03:43.838Z,42.97
2022-08-17T09:06:32.312Z,43.34
2022-08-17T09:09:12.019Z,43.68
2022-08-17T09:12:01.302Z,42.88
2022-08-17T09:14:51.087Z,42.61
2022-08-17T09:17:47.457Z,42.35
2022-08-17T09:20:28.786Z,42.41
2022-08-17T09:23:07.071Z,41.65
2022-08-17T09:26:05.470Z,41.28
2022-08-17T09:28:39.665Z,40.70
2022-08-17T09:31:19.204Z,41.24
2022-08-17T09:33:48.980Z,41.47
2022-08-17T09:36:22.316Z,42.74
2022-08-17T09:39:03.940Z,42.21
2022-08-17T09:41:49.827Z,41.83
2022-08-17T09:44:31.316Z,42.48
2022-08-17T09:47:11.327Z,42.65
2022-08-17T09:49:53.178Z,42.30
2022-08-17T09:52:26.009Z,43.29
2022-08-17T09:54:56.324Z,42.35
2022-08-17T09:57:30.469Z,42.36
2022-08-17T10:00:23.637Z,41.84
2022-08-17T10:03:16.372Z,42.67
2022-08-17T10:06:08.311Z,41.07
2022-08-17T10:08:53.997Z,40.84
2022-08-17T10:12:06.187Z,41.84
2022-08-17T10:14:44.130Z,40.70
2022-08-17T10:17:28.680Z,39.33
2022-08-17T10:20:27.872Z,39.33
2022-08-17T10:23:25.733Z,40.27
2022-08-17T10:26:14.920Z,39.89
2022-08-17T10:29:06.567Z,40.57
2022-08-17T10:32:32.432Z,41.24
2022-08-17T10:35:57.085Z,40.93
2022-08-17T10:39:21.088Z,40.51
2022-08-17T10:41:55.409Z,39.99
2022-08-17T10:44:56.171Z,39.38
2022-08-17T10:48:19.733Z,38.78
2022-08-17T10:50:55.827Z,40.83
2022-08-17T10:54:19.449Z,40.85
2022-08-17T10:56:51.586Z,39.98
2022-08-17T11:00:15.615Z,38.20
2022-08-17T11:02:50.183Z,39.12
2022-08-17T11:06:12.707Z,37.68
2022-08-17T11:09:00.712Z,38.39
2022-08-17T11:12:25.991Z,37.46
2022-08-17T11:15:31.284Z,36.94
2022-08-17T11:18:24.684Z,38.51
2022-08-17T11:21:25.548Z,39.07
2022-08-17T11:24:28.392Z,38.46
2022-08-17T11:27:03.977Z,37.20
2022-08-17T11:29:52.982Z,36.52
2022-08-17T11:32:54.433Z,36.24
2022-08-17T11:35:22.080Z,36.13
2022-08-17T11:38:02.952Z,36.57
2022-08-17T11:41:13.255Z,36.55
2022-08-17T11:44:28.214Z,37.45
2022-08-17T11:48:16.066Z,38.13
2022-08-17T11:51:08.069Z,38.31
2022-08-17T11:53:38.110Z,38.26
2022-08-17T11:56:11.055Z,38.90
2022-08-17T11:58:43.131Z,38.99
2022-08-17T12:01:23.045Z,37.89
2022-08-17T12:03:56.678Z,38.36
2022-08-17T12:06:30.184Z,38.95
2022-08-17T12:09:21.812Z,38.78
2022-08-17T12:12:12.410Z,37.26
2022-08-17T12:17:40.892Z,36.00
2022-08-17T12:20:31.068Z,34.96
2022-08-17T12:23:34.162Z,34.71
2022-08-17T12:26:13.100Z,33.73
2022-08-17T12:28:47.443Z,33.26
2022-08-17T12:31:22.142Z,33.18
2022-08-17T12:33:51.803Z,32.44
2022-08-17T12:36:25.897Z,32.24
2022-08-17T12:39:13.085Z,31.17
2022-08-17T12:41:50.192Z,31.20
2022-08-17T12:44:21.879Z,30.19
2022-08-17T12:47:02.112Z,29.31
2022-08-17T12:49:39.495Z,28.19
2022-08-17T12:52:27.431Z,27.87
2022-08-17T12:55:01.837Z,27.30
2022-08-17T12:57:47.051Z,25.81
2022-08-17T13:00:19.999Z,24.85
2022-08-17T13:03:05.794Z,23.28
2022-08-17T13:05:55.951Z,21.98
2022-08-17T13:08:32.200Z,19.19
2022-08-17T13:11:09.311Z,18.72
2022-08-17T13:13:41.674Z,18.95
2022-08-17T13:16:11.890Z,18.67
2022-08-17T13:19:18.853Z,18.90
2022-08-17T13:22:12.644Z,18.71
2022-08-17T13:24:53.257Z,18.84
2022-08-17T13:27:25.077Z,17.48
2022-08-17T13:29:59.650Z,17.70
2022-08-17T13:32:31.095Z,17.79
2022-08-17T13:35:15.357Z,17.35
2022-08-17T13:38:14.712Z,18.39
2022-08-17T13:40:49.028Z,16.64
2022-08-17T13:43:44.812Z,16.52
2022-08-17T13:46:31.115Z,16.41
2022-08-17T13:49:05.223Z,16.01
2022-08-17T13:51:50.490Z,16.28
2022-08-17T13:54:35.757Z,15.67
2022-08-17T13:57:12.008Z,16.11
2022-08-17T13:59:54.125Z,16.37
2022-08-17T14:02:25.894Z,15.53
2022-08-17T14:04:57.257Z,15.03
2022-08-17T14:07:33.877Z,15.92
2022-08-17T14:10:12.655Z,15.31
2022-08-17T14:12:43.623Z,16.79
2022-08-17T14:15:20.829Z,16.87
2022-08-17T14:17:49.299Z,16.22
2022-08-17T14:20:21.030Z,16.36
2022-08-17T14:22:53.409Z,16.84
2022-08-17T14:25:28.144Z,16.89
2022-08-17T14:28:20.412Z,15.63
2022-08-17T14:30:47.665Z,15.33
2022-08-17T14:33:15.016Z,15.91
2022-08-17T14:35:42.234Z,16.08
2022-08-17T14:38:09.498Z,15.56
2022-08-17T14:40:38.007Z,14.52
2022-08-17T14:43:05.674Z,14.36
2022-08-17T14:45:33.605Z,13.91
2022-08-17T14:48:04.167Z,15.32
2022-08-17T14:50:32.014Z,15.78
2022-08-17T14:53:05.135Z,17.34
2022-08-17T14:55:32.561Z,17.99
2022-08-17T14:57:59.670Z,18.04
2022-08-17T15:00:26.929Z,18.52
2022-08-17T15:02:58.348Z,20.34
2022-08-17T15:05:34.229Z,20.21
2022-08-17T15:08:03.100Z,20.09
2022-08-17T15:10:31.648Z,19.55
2022-08-17T15:13:00.154Z,19.19
2022-08-17T15:15:28.146Z,19.05
2022-08-17T15:17:55.541Z,19.18
2022-08-17T15:20:27.810Z,19.59
2022-08-17T15:22:57.174Z,18.86
2022-08-17T15:25:28.211Z,18.18
2022-08-17T15:27:56.495Z,17.70
2022-08-17T15:30:26.021Z,17.70
2022-08-17T15:32:55.258Z,17.80
2022-08-17T15:35:30.127Z,17.44
2022-08-17T15:38:10.192Z,16.53
2022-08-17T15:40:48.796Z,16.65
2022-08-17T15:43:22.134Z,16.85
2022-08-17T15:45:59.919Z,17.94
2022-08-17T15:48:41.265Z,18.10
2022-08-17T15:51:31.305Z,18.07
2022-08-17T15:54:22.378Z,18.65
2022-08-17T15:56:50.788Z,19.71
2022-08-17T15:59:18.793Z,20.58
2022-08-17T16:03:13.775Z,21.91
2022-08-17T16:04:33.012Z,22.89
2022-08-17T16:07:00.418Z,23.11
2022-08-17T16:09:28.707Z,23.64
2022-08-17T16:11:56.559Z,24.16
2022-08-17T16:14:33.929Z,24.33
2022-08-17T16:17:04.613Z,24.53
2022-08-17T16:19:34.290Z,25.40
2022-08-17T16:22:01.999Z,25.80
2022-08-17T16:24:29.584Z,26.44
2022-08-17T16:26:56.893Z,25.95
2022-08-17T16:29:24.614Z,26.35
2022-08-17T16:31:51.828Z,26.41
2022-08-17T16:34:19.508Z,27.40
2022-08-17T16:36:54.978Z,27.39
2022-08-17T16:39:29.086Z,27.84
2022-08-17T16:41:57.652Z,27.45
2022-08-17T16:44:30.350Z,26.11
2022-08-17T16:47:00.903Z,28.59
2022-08-17T16:49:37.281Z,27.21
2022-08-17T16:52:09.885Z,28.46
2022-08-17T16:54:43.225Z,27.81
2022-08-17T16:57:11.748Z,28.14
2022-08-17T16:59:42.551Z,28.06
2022-08-17T17:02:26.979Z,28.65
2022-08-17T17:05:19.426Z,29.08
2022-08-17T17:08:13.961Z,29.39
2022-08-17T17:10:55.243Z,29.67
2022-08-17T17:13:48.499Z,30.35
2022-08-17T17:16:28.365Z,30.82
2022-08-17T17:19:09.152Z,30.73
2022-08-17T17:21:51.726Z,30.99
2022-08-17T17:24:30.257Z,31.66
2022-08-17T17:27:42.977Z,32.01
2022-08-17T17:31:06.891Z,31.90
2022-08-17T17:34:30.684Z,31.95
2022-08-17T17:37:07.173Z,32.04
2022-08-17T17:40:30.900Z,32.74
2022-08-17T17:43:54.277Z,33.49
2022-08-17T17:47:17.620Z,33.35
2022-08-17T17:49:48.643Z,34.18
2022-08-17T17:52:32.288Z,33.83
2022-08-17T17:55:22.957Z,34.13
2022-08-17T17:58:43.894Z,34.55
2022-08-17T18:01:37.604Z,34.82
2022-08-17T18:05:00.935Z,34.88
2022-08-17T18:07:56.072Z,34.27
2022-08-17T18:11:24.023Z,34.76
2022-08-17T18:14:19.695Z,35.62
2022-08-17T18:16:54.123Z,35.13
2022-08-17T18:20:17.947Z,35.12
2022-08-17T18:22:45.019Z,34.97
2022-08-17T18:26:16.863Z,35.61
2022-08-17T18:29:40.975Z,35.19
2022-08-17T18:33:05.857Z,36.68
2022-08-17T18:36:29.734Z,36.16
2022-08-17T18:39:53.680Z,36.85
2022-08-17T18:43:17.824Z,38.10
2022-08-17T18:45:55.288Z,38.75
2022-08-17T18:48:49.985Z,38.64
2022-08-17T18:51:41.800Z,40.02
2022-08-17T18:54:22.702Z,39.37
2022-08-17T18:57:46.518Z,39.77
2022-08-17T19:00:39.461Z,39.57
2022-08-17T19:04:02.670Z,39.85
2022-08-17T19:07:26.007Z,39.13
2022-08-17T19:10:49.622Z,40.52
2022-08-17T19:14:16.563Z,40.75
2022-08-17T19:17:39.897Z,40.63
2022-08-17T19:21:03.368Z,41.22
2022-08-17T19:24:26.916Z,41.40
2022-08-17T19:27:50.995Z,41.90
2022-08-17T19:30:24.743Z,42.25
2022-08-17T19:32:52.947Z,42.08
2022-08-17T19:35:22.762Z,43.10
2022-08-17T19:38:03.863Z,43.99
2022-08-17T19:41:02.230Z,43.80
2022-08-17T19:44:15.998Z,44.46
2022-08-17T19:47:17.184Z,43.56
2022-08-17T19:50:22.084Z,43.19
2022-08-17T19:52:58.010Z,44.37
2022-08-17T19:55:49.006Z,43.89
2022-08-17T19:58:28.314Z,43.46
2022-08-17T20:00:56.156Z,42.93
2022-08-17T20:03:28.710Z,43.52
2022-08-17T20:06:15.528Z,43.23
2022-08-17T20:09:15.043Z,42.58
2022-08-17T20:11:55.977Z,44.21
2022-08-17T20:14:41.219Z,43.80
2022-08-17T20:17:22.323Z,42.78
2022-08-17T20:19:56.082Z,44.05
2022-08-17T20:22:36.786Z,43.85
2022-08-17T20:25:38.781Z,44.09
2022-08-17T20:28:38.930Z,44.02
2022-08-17T20:31:56.073Z,44.22
2022-08-17T20:34:34.936Z,45.36
2022-08-17T20:37:14.379Z,44.42
2022-08-17T20:39:43.045Z,44.89
2022-08-17T20:42:31.369Z,44.95
2022-08-17T20:45:05.456Z,45.02
2022-08-17T20:47:55.372Z,45.84
2022-08-17T20:50:36.813Z,46.43
2022-08-17T20:53:10.001Z,45.84
2022-08-17T20:55:51.360Z,45.71
2022-08-17T20:58:23.183Z,46.33
2022-08-17T21:00:56.448Z,45.76
2022-08-17T21:03:23.902Z,46.24
2022-08-17T21:06:17.336Z,46.13
2022-08-17T21:09:12.646Z,46.16
2022-08-17T21:12:04.012Z,46.06
2022-08-17T21:14:59.848Z,45.62
2022-08-17T21:17:40.376Z,46.77
2022-08-17T21:21:03.780Z,46.88
2022-08-17T21:24:21.084Z,46.73
2022-08-17T21:27:01.482Z,46.67
2022-08-17T21:29:40.295Z,46.72
2022-08-17T21:32:07.550Z,46.71
2022-08-17T21:35:33.367Z,46.65
2022-08-17T21:38:14.824Z,47.13
2022-08-17T21:41:38.791Z,48.82
2022-08-17T21:45:02.430Z,51.13
2022-08-17T21:47:30.717Z,51.01
2022-08-17T21:50:54.415Z,57.54
2022-08-17T21:54:17.834Z,60.44
2022-08-17T21:56:47.767Z,59.81
2022-08-17T22:00:17.572Z,59.87
2022-08-17T22:02:58.899Z,60.09
2022-08-17T22:05:36.993Z,61.44
2022-08-17T22:09:00.834Z,58.16
2022-08-17T22:12:24.364Z,60.35
2022-08-17T22:15:48.336Z,60.79
2022-08-17T22:18:25.945Z,62.25
2022-08-17T22:20:58.531Z,62.40
2022-08-17T22:23:51.652Z,63.68
2022-08-17T22:26:22.561Z,67.04
2022-08-17T22:28:56.948Z,67.86
2022-08-17T22:31:32.889Z,64.88
2022-08-17T22:34:00.095Z,66.91
2022-08-17T22:36:36.553Z,67.17
2022-08-17T22:39:09.645Z,68.07
2022-08-17T22:42:02.466Z,69.77
2022-08-17T22:44:46.837Z,70.18
2022-08-17T22:47:13.911Z,74.15
2022-08-17T22:49:57.602Z,76.74
2022-08-17T22:52:58.418Z,75.20
2022-08-17T22:55:46.615Z,78.50
2022-08-17T22:58:39.440Z,83.51
2022-08-17T23:01:34.767Z,87.40
2022-08-17T23:04:05.794Z,85.25
2022-08-17T23:06:36.116Z,83.16
2022-08-17T23:09:06.517Z,88.39
2022-08-17T23:11:49.167Z,97.80
2022-08-17T23:14:20.345Z,99.39
2022-08-17T23:16:50.101Z,100.00
2022-08-17T23:19:20.873Z,100.00
2022-08-17T23:21:53.781Z,100.00
2022-08-17T23:24:25.559Z,100.00
2022-08-17T23:26:57.194Z,100.00
2022-08-17T23:29:26.675Z,100.00
2022-08-17T23:31:55.084Z,100.00
2022-08-17T23:34:23.197Z,100.00
2022-08-17T23:36:53.336Z,100.00
2022-08-17T23:39:24.611Z,100.00
2022-08-17T23:41:57.679Z,100.00
2022-08-17T23:44:26.029Z,100.00
2022-08-17T23:46:54.008Z,100.00
2022-08-17T23:49:21.234Z,100.00
2022-08-17T23:51:49.190Z,100.00
2022-08-17T23:54:43.431Z,100.00
2022-08-17T23:57:14.706Z,100.00
2022-08-17T23:59:43.767Z,100.00
